sensor_id;sensor_type;location;lat;lon;timestamp;temperature;humidity
71382;DHT22;60099;45.660;13.804;2022-09-09T00:04:35;22.00;90.20
71382;DHT22;60099;45.660;13.804;2022-09-09T00:21:05;21.90;90.00
71382;DHT22;60099;45.660;13.804;2022-09-09T00:23:35;22.00;89.50
71382;DHT22;60099;45.660;13.804;2022-09-09T00:31:57;22.00;90.00
71382;DHT22;60099;45.660;13.804;2022-09-09T00:34:27;21.80;89.90
71382;DHT22;60099;45.660;13.804;2022-09-09T00:36:54;21.90;89.20
71382;DHT22;60099;45.660;13.804;2022-09-09T00:44:33;21.80;88.60
71382;DHT22;60099;45.660;13.804;2022-09-09T00:52:36;21.90;86.40
71382;DHT22;60099;45.660;13.804;2022-09-09T00:55:07;22.00;86.90
71382;DHT22;60099;45.660;13.804;2022-09-09T00:57:35;22.00;86.70
71382;DHT22;60099;45.660;13.804;2022-09-09T01:00:28;22.10;87.20
71382;DHT22;60099;45.660;13.804;2022-09-09T01:11:26;22.00;87.40
71382;DHT22;60099;45.660;13.804;2022-09-09T01:14:05;22.00;87.20
71382;DHT22;60099;45.660;13.804;2022-09-09T01:16:36;22.00;87.10
71382;DHT22;60099;45.660;13.804;2022-09-09T01:19:03;22.10;86.80
71382;DHT22;60099;45.660;13.804;2022-09-09T01:26:46;22.10;86.90
71382;DHT22;60099;45.660;13.804;2022-09-09T01:29:15;22.20;86.40
71382;DHT22;60099;45.660;13.804;2022-09-09T01:31:58;22.10;86.50
71382;DHT22;60099;45.660;13.804;2022-09-09T01:34:31;22.20;86.40
71382;DHT22;60099;45.660;13.804;2022-09-09T01:37:08;22.20;86.10
71382;DHT22;60099;45.660;13.804;2022-09-09T01:39:36;22.20;86.20
71382;DHT22;60099;45.660;13.804;2022-09-09T01:42:05;22.20;86.10
71382;DHT22;60099;45.660;13.804;2022-09-09T01:44:32;22.20;86.50
71382;DHT22;60099;45.660;13.804;2022-09-09T01:46:58;22.10;86.80
71382;DHT22;60099;45.660;13.804;2022-09-09T01:49:24;22.00;86.80
71382;DHT22;60099;45.660;13.804;2022-09-09T01:51:52;22.10;87.00
71382;DHT22;60099;45.660;13.804;2022-09-09T01:54:21;22.10;87.40
71382;DHT22;60099;45.660;13.804;2022-09-09T02:02:33;22.00;89.10
71382;DHT22;60099;45.660;13.804;2022-09-09T02:07:48;22.00;89.20
71382;DHT22;60099;45.660;13.804;2022-09-09T02:13:13;22.00;89.20
71382;DHT22;60099;45.660;13.804;2022-09-09T02:16:00;21.90;89.70
71382;DHT22;60099;45.660;13.804;2022-09-09T02:18:35;21.90;89.70
71382;DHT22;60099;45.660;13.804;2022-09-09T02:21:03;21.80;89.60
71382;DHT22;60099;45.660;13.804;2022-09-09T02:23:32;21.80;90.20
71382;DHT22;60099;45.660;13.804;2022-09-09T02:25:58;21.80;89.40
71382;DHT22;60099;45.660;13.804;2022-09-09T02:28:27;21.80;88.50
71382;DHT22;60099;45.660;13.804;2022-09-09T02:30:54;21.80;87.60
71382;DHT22;60099;45.660;13.804;2022-09-09T02:33:25;21.80;87.60
71382;DHT22;60099;45.660;13.804;2022-09-09T02:35:52;21.70;87.10
71382;DHT22;60099;45.660;13.804;2022-09-09T02:38:21;21.80;86.80
71382;DHT22;60099;45.660;13.804;2022-09-09T02:40:50;21.80;85.90
71382;DHT22;60099;45.660;13.804;2022-09-09T02:43:16;21.80;86.30
71382;DHT22;60099;45.660;13.804;2022-09-09T02:45:57;21.80;86.40
71382;DHT22;60099;45.660;13.804;2022-09-09T02:51:10;21.80;86.30
71382;DHT22;60099;45.660;13.804;2022-09-09T02:53:52;21.70;86.40
71382;DHT22;60099;45.660;13.804;2022-09-09T02:56:25;21.70;86.70
71382;DHT22;60099;45.660;13.804;2022-09-09T02:58:54;21.70;86.80
71382;DHT22;60099;45.660;13.804;2022-09-09T03:01:20;21.60;86.00
71382;DHT22;60099;45.660;13.804;2022-09-09T03:03:46;21.60;85.80
71382;DHT22;60099;45.660;13.804;2022-09-09T03:19:26;21.50;86.00
71382;DHT22;60099;45.660;13.804;2022-09-09T03:21:53;21.50;86.20
71382;DHT22;60099;45.660;13.804;2022-09-09T03:24:19;21.50;86.60
71382;DHT22;60099;45.660;13.804;2022-09-09T03:26:45;21.50;86.40
71382;DHT22;60099;45.660;13.804;2022-09-09T03:29:18;21.50;86.40
71382;DHT22;60099;45.660;13.804;2022-09-09T03:31:44;21.50;86.60
71382;DHT22;60099;45.660;13.804;2022-09-09T03:34:10;21.50;86.20
71382;DHT22;60099;45.660;13.804;2022-09-09T03:36:37;21.50;86.00
71382;DHT22;60099;45.660;13.804;2022-09-09T03:39:04;21.50;85.70
71382;DHT22;60099;45.660;13.804;2022-09-09T03:41:30;21.60;85.40
71382;DHT22;60099;45.660;13.804;2022-09-09T03:43:56;21.70;85.30
71382;DHT22;60099;45.660;13.804;2022-09-09T03:46:24;21.70;84.60
71382;DHT22;60099;45.660;13.804;2022-09-09T03:48:52;21.70;84.80
71382;DHT22;60099;45.660;13.804;2022-09-09T03:51:18;21.60;84.80
71382;DHT22;60099;45.660;13.804;2022-09-09T03:53:44;21.60;85.20
71382;DHT22;60099;45.660;13.804;2022-09-09T03:56:10;21.50;85.50
71382;DHT22;60099;45.660;13.804;2022-09-09T03:58:37;21.50;85.10
71382;DHT22;60099;45.660;13.804;2022-09-09T04:01:05;21.50;85.00
71382;DHT22;60099;45.660;13.804;2022-09-09T04:03:32;21.40;85.20
71382;DHT22;60099;45.660;13.804;2022-09-09T04:05:59;21.40;85.60
71382;DHT22;60099;45.660;13.804;2022-09-09T04:08:26;21.30;85.50
71382;DHT22;60099;45.660;13.804;2022-09-09T04:10:53;21.30;85.90
71382;DHT22;60099;45.660;13.804;2022-09-09T04:13:22;21.20;86.00
71382;DHT22;60099;45.660;13.804;2022-09-09T04:15:57;21.30;85.30
71382;DHT22;60099;45.660;13.804;2022-09-09T04:18:23;21.20;85.80
71382;DHT22;60099;45.660;13.804;2022-09-09T04:20:50;21.20;85.80
71382;DHT22;60099;45.660;13.804;2022-09-09T04:23:17;21.20;85.60
71382;DHT22;60099;45.660;13.804;2022-09-09T04:25:51;21.20;85.10
71382;DHT22;60099;45.660;13.804;2022-09-09T04:28:18;21.30;84.80
71382;DHT22;60099;45.660;13.804;2022-09-09T04:30:45;21.30;84.40
71382;DHT22;60099;45.660;13.804;2022-09-09T04:33:11;21.40;84.20
71382;DHT22;60099;45.660;13.804;2022-09-09T04:35:38;21.40;84.00
71382;DHT22;60099;45.660;13.804;2022-09-09T04:38:07;21.50;83.20
71382;DHT22;60099;45.660;13.804;2022-09-09T04:40:36;21.50;82.80
71382;DHT22;60099;45.660;13.804;2022-09-09T04:43:03;21.60;82.60
71382;DHT22;60099;45.660;13.804;2022-09-09T04:45:31;21.60;82.20
71382;DHT22;60099;45.660;13.804;2022-09-09T04:47:57;21.60;82.40
71382;DHT22;60099;45.660;13.804;2022-09-09T04:50:23;21.60;82.20
71382;DHT22;60099;45.660;13.804;2022-09-09T04:52:50;21.60;81.80
71382;DHT22;60099;45.660;13.804;2022-09-09T04:55:16;21.60;82.00
71382;DHT22;60099;45.660;13.804;2022-09-09T04:57:41;21.60;82.20
71382;DHT22;60099;45.660;13.804;2022-09-09T05:00:08;21.60;82.00
71382;DHT22;60099;45.660;13.804;2022-09-09T05:02:37;21.60;82.00
71382;DHT22;60099;45.660;13.804;2022-09-09T05:05:04;21.60;82.00
71382;DHT22;60099;45.660;13.804;2022-09-09T05:07:30;21.60;81.60
71382;DHT22;60099;45.660;13.804;2022-09-09T05:09:56;21.70;81.50
71382;DHT22;60099;45.660;13.804;2022-09-09T05:12:23;21.60;81.50
71382;DHT22;60099;45.660;13.804;2022-09-09T05:14:53;21.60;81.20
71382;DHT22;60099;45.660;13.804;2022-09-09T05:17:19;21.70;81.50
71382;DHT22;60099;45.660;13.804;2022-09-09T05:19:45;21.70;81.30
71382;DHT22;60099;45.660;13.804;2022-09-09T05:22:11;21.60;81.60
71382;DHT22;60099;45.660;13.804;2022-09-09T05:24:37;21.60;82.00
71382;DHT22;60099;45.660;13.804;2022-09-09T05:27:04;21.70;81.60
71382;DHT22;60099;45.660;13.804;2022-09-09T05:29:32;21.70;81.40
71382;DHT22;60099;45.660;13.804;2022-09-09T05:31:59;21.70;81.30
71382;DHT22;60099;45.660;13.804;2022-09-09T05:34:25;21.70;81.30
71382;DHT22;60099;45.660;13.804;2022-09-09T05:36:51;21.50;82.00
71382;DHT22;60099;45.660;13.804;2022-09-09T05:39:17;21.50;81.90
71382;DHT22;60099;45.660;13.804;2022-09-09T05:41:43;21.50;82.10
71382;DHT22;60099;45.660;13.804;2022-09-09T05:44:09;21.50;81.80
71382;DHT22;60099;45.660;13.804;2022-09-09T05:46:35;21.50;82.10
71382;DHT22;60099;45.660;13.804;2022-09-09T05:49:02;21.60;82.00
71382;DHT22;60099;45.660;13.804;2022-09-09T05:51:28;21.60;81.70
71382;DHT22;60099;45.660;13.804;2022-09-09T05:53:56;21.60;81.70
71382;DHT22;60099;45.660;13.804;2022-09-09T05:56:26;21.60;81.40
71382;DHT22;60099;45.660;13.804;2022-09-09T05:58:53;21.60;81.80
71382;DHT22;60099;45.660;13.804;2022-09-09T06:01:30;21.60;81.90
71382;DHT22;60099;45.660;13.804;2022-09-09T06:03:57;21.60;81.40
71382;DHT22;60099;45.660;13.804;2022-09-09T06:06:29;21.70;81.00
71382;DHT22;60099;45.660;13.804;2022-09-09T06:08:56;21.80;80.60
71382;DHT22;60099;45.660;13.804;2022-09-09T06:11:27;21.80;80.40
71382;DHT22;60099;45.660;13.804;2022-09-09T06:13:53;21.90;80.50
71382;DHT22;60099;45.660;13.804;2022-09-09T06:16:22;21.90;80.30
71382;DHT22;60099;45.660;13.804;2022-09-09T06:18:52;21.90;79.70
71382;DHT22;60099;45.660;13.804;2022-09-09T06:21:23;22.00;79.40
71382;DHT22;60099;45.660;13.804;2022-09-09T06:23:50;22.00;79.40
71382;DHT22;60099;45.660;13.804;2022-09-09T06:26:24;22.10;79.30
71382;DHT22;60099;45.660;13.804;2022-09-09T06:28:53;22.10;79.70
71382;DHT22;60099;45.660;13.804;2022-09-09T06:31:21;22.20;79.00
71382;DHT22;60099;45.660;13.804;2022-09-09T06:33:48;22.20;78.30
71382;DHT22;60099;45.660;13.804;2022-09-09T06:36:23;22.20;78.50
71382;DHT22;60099;45.660;13.804;2022-09-09T06:38:49;22.30;78.30
71382;DHT22;60099;45.660;13.804;2022-09-09T06:41:16;22.30;77.00
71382;DHT22;60099;45.660;13.804;2022-09-09T06:43:44;22.30;77.20
71382;DHT22;60099;45.660;13.804;2022-09-09T06:46:16;22.30;77.30
71382;DHT22;60099;45.660;13.804;2022-09-09T06:48:45;22.30;77.30
71382;DHT22;60099;45.660;13.804;2022-09-09T06:51:15;22.40;76.90
71382;DHT22;60099;45.660;13.804;2022-09-09T06:53:43;22.40;77.60
71382;DHT22;60099;45.660;13.804;2022-09-09T06:58:42;22.60;77.90
71382;DHT22;60099;45.660;13.804;2022-09-09T07:01:11;22.60;77.40
71382;DHT22;60099;45.660;13.804;2022-09-09T07:03:41;22.70;77.50
71382;DHT22;60099;45.660;13.804;2022-09-09T07:06:17;22.80;76.80
71382;DHT22;60099;45.660;13.804;2022-09-09T07:08:48;22.80;77.10
71382;DHT22;60099;45.660;13.804;2022-09-09T07:11:14;22.90;75.90
71382;DHT22;60099;45.660;13.804;2022-09-09T07:13:39;22.90;76.40
71382;DHT22;60099;45.660;13.804;2022-09-09T07:16:07;22.90;75.80
71382;DHT22;60099;45.660;13.804;2022-09-09T07:34:45;23.50;75.10
71382;DHT22;60099;45.660;13.804;2022-09-09T07:37:24;23.80;75.10
71382;DHT22;60099;45.660;13.804;2022-09-09T07:39:50;23.90;72.00
71382;DHT22;60099;45.660;13.804;2022-09-09T07:42:18;24.00;71.30
71382;DHT22;60099;45.660;13.804;2022-09-09T07:44:44;24.10;72.00
71382;DHT22;60099;45.660;13.804;2022-09-09T07:47:10;24.10;71.10
71382;DHT22;60099;45.660;13.804;2022-09-09T07:49:36;24.20;71.30
71382;DHT22;60099;45.660;13.804;2022-09-09T07:52:02;24.20;71.80
71382;DHT22;60099;45.660;13.804;2022-09-09T07:54:29;24.20;71.90
71382;DHT22;60099;45.660;13.804;2022-09-09T07:56:54;24.20;71.00
71382;DHT22;60099;45.660;13.804;2022-09-09T07:59:21;24.30;72.20
71382;DHT22;60099;45.660;13.804;2022-09-09T08:01:51;24.40;71.50
71382;DHT22;60099;45.660;13.804;2022-09-09T08:04:21;24.50;71.20
71382;DHT22;60099;45.660;13.804;2022-09-09T08:06:53;24.60;72.20
71382;DHT22;60099;45.660;13.804;2022-09-09T08:09:19;24.70;70.00
71382;DHT22;60099;45.660;13.804;2022-09-09T08:11:46;24.70;69.30
71382;DHT22;60099;45.660;13.804;2022-09-09T08:14:12;24.80;69.70
71382;DHT22;60099;45.660;13.804;2022-09-09T08:16:41;24.70;70.30
71382;DHT22;60099;45.660;13.804;2022-09-09T08:19:07;24.60;71.00
71382;DHT22;60099;45.660;13.804;2022-09-09T08:21:34;24.50;71.80
71382;DHT22;60099;45.660;13.804;2022-09-09T08:24:02;24.50;70.40
71382;DHT22;60099;45.660;13.804;2022-09-09T08:26:36;24.50;72.90
71382;DHT22;60099;45.660;13.804;2022-09-09T08:29:05;24.40;72.90
71382;DHT22;60099;45.660;13.804;2022-09-09T08:31:34;24.40;72.80
71382;DHT22;60099;45.660;13.804;2022-09-09T08:34:01;24.40;72.90
71382;DHT22;60099;45.660;13.804;2022-09-09T08:36:32;24.40;72.90
71382;DHT22;60099;45.660;13.804;2022-09-09T08:39:01;24.50;71.80
71382;DHT22;60099;45.660;13.804;2022-09-09T08:57:56;24.90;71.50
71382;DHT22;60099;45.660;13.804;2022-09-09T09:00:31;25.00;70.00
71382;DHT22;60099;45.660;13.804;2022-09-09T09:06:05;25.00;69.60
71382;DHT22;60099;45.660;13.804;2022-09-09T09:11:04;24.80;70.10
71382;DHT22;60099;45.660;13.804;2022-09-09T09:19:14;24.70;71.80
71382;DHT22;60099;45.660;13.804;2022-09-09T09:24:52;24.50;73.30
71382;DHT22;60099;45.660;13.804;2022-09-09T09:27:33;24.30;74.10
71382;DHT22;60099;45.660;13.804;2022-09-09T09:30:02;24.20;75.70
71382;DHT22;60099;45.660;13.804;2022-09-09T09:32:32;24.00;78.20
71382;DHT22;60099;45.660;13.804;2022-09-09T09:34:59;23.80;82.20
71382;DHT22;60099;45.660;13.804;2022-09-09T09:40:24;23.30;90.20
71382;DHT22;60099;45.660;13.804;2022-09-09T09:43:01;23.00;90.80
71382;DHT22;60099;45.660;13.804;2022-09-09T09:45:35;22.60;89.00
71382;DHT22;60099;45.660;13.804;2022-09-09T09:48:10;21.80;84.00
71382;DHT22;60099;45.660;13.804;2022-09-09T09:50:47;20.80;88.10
71382;DHT22;60099;45.660;13.804;2022-09-09T09:53:28;20.40;88.60
71382;DHT22;60099;45.660;13.804;2022-09-09T09:55:58;20.20;89.80
71382;DHT22;60099;45.660;13.804;2022-09-09T09:58:26;20.30;90.00
71382;DHT22;60099;45.660;13.804;2022-09-09T10:00:53;20.30;90.10
71382;DHT22;60099;45.660;13.804;2022-09-09T10:03:28;20.30;90.00
71382;DHT22;60099;45.660;13.804;2022-09-09T10:05:54;20.20;91.40
71382;DHT22;60099;45.660;13.804;2022-09-09T10:08:24;20.00;91.80
71382;DHT22;60099;45.660;13.804;2022-09-09T10:11:19;20.00;92.00
71382;DHT22;60099;45.660;13.804;2022-09-09T10:14:18;20.20;91.30
71382;DHT22;60099;45.660;13.804;2022-09-09T10:19:49;20.30;90.80
71382;DHT22;60099;45.660;13.804;2022-09-09T10:22:28;20.30;91.40
71382;DHT22;60099;45.660;13.804;2022-09-09T10:30:43;20.50;90.90
71382;DHT22;60099;45.660;13.804;2022-09-09T10:33:37;20.70;91.00
71382;DHT22;60099;45.660;13.804;2022-09-09T10:36:25;20.90;91.00
71382;DHT22;60099;45.660;13.804;2022-09-09T10:39:04;21.00;90.50
71382;DHT22;60099;45.660;13.804;2022-09-09T10:41:55;21.10;90.00
71382;DHT22;60099;45.660;13.804;2022-09-09T10:57:33;21.30;90.90
71382;DHT22;60099;45.660;13.804;2022-09-09T11:00:14;21.30;90.70
71382;DHT22;60099;45.660;13.804;2022-09-09T11:02:41;21.50;90.70
71382;DHT22;60099;45.660;13.804;2022-09-09T11:05:20;21.60;90.30
71382;DHT22;60099;45.660;13.804;2022-09-09T11:07:59;21.70;90.40
71382;DHT22;60099;45.660;13.804;2022-09-09T11:13:44;22.00;91.70
71382;DHT22;60099;45.660;13.804;2022-09-09T11:19:04;22.30;90.30
71382;DHT22;60099;45.660;13.804;2022-09-09T11:21:47;22.50;90.50
71382;DHT22;60099;45.660;13.804;2022-09-09T11:26:55;22.60;90.10
71382;DHT22;60099;45.660;13.804;2022-09-09T11:40:26;22.80;88.00
71382;DHT22;60099;45.660;13.804;2022-09-09T11:43:12;22.80;86.10
71382;DHT22;60099;45.660;13.804;2022-09-09T11:45:40;22.90;84.40
71382;DHT22;60099;45.660;13.804;2022-09-09T11:48:23;22.90;84.10
71382;DHT22;60099;45.660;13.804;2022-09-09T11:54:03;23.00;83.30
71382;DHT22;60099;45.660;13.804;2022-09-09T11:56:48;23.00;83.30
71382;DHT22;60099;45.660;13.804;2022-09-09T11:59:26;23.00;83.30
71382;DHT22;60099;45.660;13.804;2022-09-09T12:02:23;23.00;83.00
71382;DHT22;60099;45.660;13.804;2022-09-09T12:04:54;23.10;83.20
71382;DHT22;60099;45.660;13.804;2022-09-09T12:07:33;23.10;82.80
71382;DHT22;60099;45.660;13.804;2022-09-09T12:12:34;23.10;83.50
71382;DHT22;60099;45.660;13.804;2022-09-09T12:18:06;23.40;83.50
71382;DHT22;60099;45.660;13.804;2022-09-09T12:20:35;23.50;81.30
71382;DHT22;60099;45.660;13.804;2022-09-09T12:25:44;23.70;79.70
71382;DHT22;60099;45.660;13.804;2022-09-09T12:28:39;23.80;78.70
71382;DHT22;60099;45.660;13.804;2022-09-09T12:34:16;24.10;79.80
71382;DHT22;60099;45.660;13.804;2022-09-09T12:36:43;24.20;78.40
71382;DHT22;60099;45.660;13.804;2022-09-09T12:39:22;24.30;79.40
71382;DHT22;60099;45.660;13.804;2022-09-09T12:41:52;24.40;77.40
71382;DHT22;60099;45.660;13.804;2022-09-09T12:44:23;24.50;76.40
71382;DHT22;60099;45.660;13.804;2022-09-09T12:46:51;24.60;76.80
71382;DHT22;60099;45.660;13.804;2022-09-09T12:52:02;24.90;76.40
71382;DHT22;60099;45.660;13.804;2022-09-09T12:54:30;25.00;74.50
71382;DHT22;60099;45.660;13.804;2022-09-09T12:56:56;25.00;73.60
71382;DHT22;60099;45.660;13.804;2022-09-09T12:59:34;24.80;72.70
71382;DHT22;60099;45.660;13.804;2022-09-09T13:02:00;24.80;74.00
71382;DHT22;60099;45.660;13.804;2022-09-09T13:04:26;24.80;73.20
71382;DHT22;60099;45.660;13.804;2022-09-09T13:06:52;24.90;72.80
71382;DHT22;60099;45.660;13.804;2022-09-09T13:09:19;25.00;72.40
71382;DHT22;60099;45.660;13.804;2022-09-09T13:11:54;25.10;70.40
71382;DHT22;60099;45.660;13.804;2022-09-09T13:14:32;25.10;71.70
71382;DHT22;60099;45.660;13.804;2022-09-09T13:17:01;25.30;70.60
71382;DHT22;60099;45.660;13.804;2022-09-09T13:19:38;25.40;70.40
71382;DHT22;60099;45.660;13.804;2022-09-09T13:22:31;25.40;71.00
71382;DHT22;60099;45.660;13.804;2022-09-09T13:25:21;25.50;70.10
71382;DHT22;60099;45.660;13.804;2022-09-09T13:30:33;25.30;71.70
71382;DHT22;60099;45.660;13.804;2022-09-09T13:35:27;25.40;71.40
71382;DHT22;60099;45.660;13.804;2022-09-09T13:37:54;25.30;70.80
71382;DHT22;60099;45.660;13.804;2022-09-09T13:40:21;25.20;71.80
71382;DHT22;60099;45.660;13.804;2022-09-09T13:42:52;25.20;71.60
71382;DHT22;60099;45.660;13.804;2022-09-09T13:45:21;25.20;72.00
71382;DHT22;60099;45.660;13.804;2022-09-09T13:47:49;25.10;72.50
71382;DHT22;60099;45.660;13.804;2022-09-09T13:50:19;25.10;72.80
71382;DHT22;60099;45.660;13.804;2022-09-09T13:52:45;25.00;73.20
71382;DHT22;60099;45.660;13.804;2022-09-09T13:55:13;25.00;73.80
71382;DHT22;60099;45.660;13.804;2022-09-09T13:57:38;25.00;74.10
71382;DHT22;60099;45.660;13.804;2022-09-09T14:00:06;25.00;74.20
71382;DHT22;60099;45.660;13.804;2022-09-09T14:02:35;25.00;74.80
71382;DHT22;60099;45.660;13.804;2022-09-09T14:05:01;24.90;74.10
71382;DHT22;60099;45.660;13.804;2022-09-09T14:07:26;25.00;73.80
71382;DHT22;60099;45.660;13.804;2022-09-09T14:09:52;25.00;74.10
71382;DHT22;60099;45.660;13.804;2022-09-09T14:12:18;25.00;73.20
71382;DHT22;60099;45.660;13.804;2022-09-09T14:14:44;25.00;73.10
71382;DHT22;60099;45.660;13.804;2022-09-09T14:17:10;25.20;74.10
71382;DHT22;60099;45.660;13.804;2022-09-09T14:19:36;25.30;72.20
71382;DHT22;60099;45.660;13.804;2022-09-09T14:22:05;25.40;72.60
71382;DHT22;60099;45.660;13.804;2022-09-09T14:24:30;25.60;72.30
71382;DHT22;60099;45.660;13.804;2022-09-09T14:26:56;25.70;71.80
71382;DHT22;60099;45.660;13.804;2022-09-09T14:29:22;25.70;67.90
71382;DHT22;60099;45.660;13.804;2022-09-09T14:31:47;25.80;67.80
71382;DHT22;60099;45.660;13.804;2022-09-09T14:34:13;25.80;68.50
71382;DHT22;60099;45.660;13.804;2022-09-09T14:36:40;25.70;68.40
71382;DHT22;60099;45.660;13.804;2022-09-09T14:39:07;25.70;68.60
71382;DHT22;60099;45.660;13.804;2022-09-09T14:41:32;25.70;69.20
71382;DHT22;60099;45.660;13.804;2022-09-09T14:43:59;25.80;68.90
71382;DHT22;60099;45.660;13.804;2022-09-09T14:46:25;25.90;69.30
71382;DHT22;60099;45.660;13.804;2022-09-09T14:48:52;26.10;68.30
71382;DHT22;60099;45.660;13.804;2022-09-09T14:51:23;26.00;66.80
71382;DHT22;60099;45.660;13.804;2022-09-09T14:53:52;26.10;67.00
71382;DHT22;60099;45.660;13.804;2022-09-09T14:56:20;26.30;66.70
71382;DHT22;60099;45.660;13.804;2022-09-09T14:58:47;26.30;66.00
71382;DHT22;60099;45.660;13.804;2022-09-09T15:01:20;26.40;64.80
71382;DHT22;60099;45.660;13.804;2022-09-09T15:03:54;26.50;65.00
71382;DHT22;60099;45.660;13.804;2022-09-09T15:06:21;26.50;65.00
71382;DHT22;60099;45.660;13.804;2022-09-09T15:08:50;26.60;63.40
71382;DHT22;60099;45.660;13.804;2022-09-09T15:11:16;26.60;61.70
71382;DHT22;60099;45.660;13.804;2022-09-09T15:13:42;26.60;62.30
71382;DHT22;60099;45.660;13.804;2022-09-09T15:18:34;26.50;62.90
71382;DHT22;60099;45.660;13.804;2022-09-09T15:21:02;26.40;61.40
71382;DHT22;60099;45.660;13.804;2022-09-09T15:23:35;26.50;61.40
71382;DHT22;60099;45.660;13.804;2022-09-09T15:26:01;26.50;63.10
71382;DHT22;60099;45.660;13.804;2022-09-09T15:28:28;26.40;63.50
71382;DHT22;60099;45.660;13.804;2022-09-09T15:30:54;26.30;64.70
71382;DHT22;60099;45.660;13.804;2022-09-09T15:33:21;26.20;64.70
71382;DHT22;60099;45.660;13.804;2022-09-09T15:36:01;26.10;65.60
71382;DHT22;60099;45.660;13.804;2022-09-09T15:38:27;26.00;66.10
71382;DHT22;60099;45.660;13.804;2022-09-09T15:40:55;26.00;66.50
71382;DHT22;60099;45.660;13.804;2022-09-09T15:43:22;25.80;64.70
71382;DHT22;60099;45.660;13.804;2022-09-09T15:45:53;25.60;67.50
71382;DHT22;60099;45.660;13.804;2022-09-09T15:48:30;25.50;67.90
71382;DHT22;60099;45.660;13.804;2022-09-09T15:51:04;25.30;67.80
71382;DHT22;60099;45.660;13.804;2022-09-09T15:53:30;24.90;69.10
71382;DHT22;60099;45.660;13.804;2022-09-09T15:55:58;24.40;70.30
71382;DHT22;60099;45.660;13.804;2022-09-09T15:58:24;24.20;69.50
71382;DHT22;60099;45.660;13.804;2022-09-09T16:00:50;23.90;67.70
71382;DHT22;60099;45.660;13.804;2022-09-09T16:03:16;23.80;67.00
71382;DHT22;60099;45.660;13.804;2022-09-09T16:05:42;23.70;65.50
71382;DHT22;60099;45.660;13.804;2022-09-09T16:08:08;23.60;64.80
71382;DHT22;60099;45.660;13.804;2022-09-09T16:10:34;23.60;65.60
71382;DHT22;60099;45.660;13.804;2022-09-09T16:13:00;23.70;67.10
71382;DHT22;60099;45.660;13.804;2022-09-09T16:15:26;23.70;67.90
71382;DHT22;60099;45.660;13.804;2022-09-09T16:17:53;23.70;67.10
71382;DHT22;60099;45.660;13.804;2022-09-09T16:20:19;23.70;66.80
71382;DHT22;60099;45.660;13.804;2022-09-09T16:22:45;23.70;65.90
71382;DHT22;60099;45.660;13.804;2022-09-09T16:25:11;23.70;66.10
71382;DHT22;60099;45.660;13.804;2022-09-09T16:27:37;23.60;64.30
71382;DHT22;60099;45.660;13.804;2022-09-09T16:30:03;23.50;64.40
71382;DHT22;60099;45.660;13.804;2022-09-09T16:32:29;23.60;64.10
71382;DHT22;60099;45.660;13.804;2022-09-09T16:34:55;23.60;63.30
71382;DHT22;60099;45.660;13.804;2022-09-09T16:37:21;23.60;63.40
71382;DHT22;60099;45.660;13.804;2022-09-09T16:39:47;23.60;62.70
71382;DHT22;60099;45.660;13.804;2022-09-09T16:42:13;23.60;62.60
71382;DHT22;60099;45.660;13.804;2022-09-09T16:44:38;23.70;62.50
71382;DHT22;60099;45.660;13.804;2022-09-09T16:47:04;23.60;62.50
71382;DHT22;60099;45.660;13.804;2022-09-09T16:49:30;23.60;61.30
71382;DHT22;60099;45.660;13.804;2022-09-09T16:51:59;23.50;62.80
71382;DHT22;60099;45.660;13.804;2022-09-09T16:54:26;23.50;64.60
71382;DHT22;60099;45.660;13.804;2022-09-09T16:56:52;23.40;66.20
71382;DHT22;60099;45.660;13.804;2022-09-09T16:59:20;23.40;67.20
71382;DHT22;60099;45.660;13.804;2022-09-09T17:01:48;23.30;68.00
71382;DHT22;60099;45.660;13.804;2022-09-09T17:04:26;23.30;68.80
71382;DHT22;60099;45.660;13.804;2022-09-09T17:06:54;23.20;70.10
71382;DHT22;60099;45.660;13.804;2022-09-09T17:09:21;23.20;71.10
71382;DHT22;60099;45.660;13.804;2022-09-09T17:11:48;22.90;74.30
71382;DHT22;60099;45.660;13.804;2022-09-09T17:14:17;22.80;75.10
71382;DHT22;60099;45.660;13.804;2022-09-09T17:16:44;22.70;72.70
71382;DHT22;60099;45.660;13.804;2022-09-09T17:19:10;22.70;73.70
71382;DHT22;60099;45.660;13.804;2022-09-09T17:21:36;22.80;71.80
71382;DHT22;60099;45.660;13.804;2022-09-09T17:24:02;23.00;72.40
71382;DHT22;60099;45.660;13.804;2022-09-09T17:26:30;22.90;72.10
71382;DHT22;60099;45.660;13.804;2022-09-09T17:28:57;22.80;73.20
71382;DHT22;60099;45.660;13.804;2022-09-09T17:31:27;22.60;73.60
71382;DHT22;60099;45.660;13.804;2022-09-09T17:33:54;22.60;73.60
71382;DHT22;60099;45.660;13.804;2022-09-09T17:36:31;22.40;74.60
71382;DHT22;60099;45.660;13.804;2022-09-09T17:38:59;22.40;74.70
71382;DHT22;60099;45.660;13.804;2022-09-09T17:41:28;22.30;75.60
71382;DHT22;60099;45.660;13.804;2022-09-09T17:43:54;22.20;76.00
71382;DHT22;60099;45.660;13.804;2022-09-09T17:46:22;22.30;76.20
71382;DHT22;60099;45.660;13.804;2022-09-09T17:48:51;22.30;77.30
71382;DHT22;60099;45.660;13.804;2022-09-09T17:51:20;22.10;77.90
71382;DHT22;60099;45.660;13.804;2022-09-09T17:53:50;22.00;78.50
71382;DHT22;60099;45.660;13.804;2022-09-09T17:56:19;21.80;78.00
71382;DHT22;60099;45.660;13.804;2022-09-09T17:58:46;21.80;78.10
71382;DHT22;60099;45.660;13.804;2022-09-09T18:01:17;22.00;78.20
71382;DHT22;60099;45.660;13.804;2022-09-09T18:03:43;22.00;78.40
71382;DHT22;60099;45.660;13.804;2022-09-09T18:06:18;22.10;78.40
71382;DHT22;60099;45.660;13.804;2022-09-09T18:08:51;22.10;78.60
71382;DHT22;60099;45.660;13.804;2022-09-09T18:11:19;22.20;79.10
71382;DHT22;60099;45.660;13.804;2022-09-09T18:13:50;22.20;79.00
71382;DHT22;60099;45.660;13.804;2022-09-09T18:16:16;22.00;78.20
71382;DHT22;60099;45.660;13.804;2022-09-09T18:18:44;21.90;77.60
71382;DHT22;60099;45.660;13.804;2022-09-09T18:21:10;21.90;76.10
71382;DHT22;60099;45.660;13.804;2022-09-09T18:23:38;21.90;75.10
71382;DHT22;60099;45.660;13.804;2022-09-09T18:26:12;21.80;74.40
71382;DHT22;60099;45.660;13.804;2022-09-09T18:28:40;21.80;74.40
71382;DHT22;60099;45.660;13.804;2022-09-09T18:31:07;21.70;74.30
71382;DHT22;60099;45.660;13.804;2022-09-09T18:33:42;21.70;76.00
71382;DHT22;60099;45.660;13.804;2022-09-09T18:36:41;21.80;75.60
71382;DHT22;60099;45.660;13.804;2022-09-09T18:39:09;21.80;75.20
71382;DHT22;60099;45.660;13.804;2022-09-09T18:41:40;21.90;75.00
71382;DHT22;60099;45.660;13.804;2022-09-09T18:44:20;21.90;75.10